Terminal Aerodrome Forecast
Issued by NWS

Home | Current Version | Previous Version | Text Only | Print | Product List | Glossary On
Versions: 1 2 3 4 5 6 7 8 9 10 11 12 13 14
000
FTUS43 KICT 301120
TAFCNU
TAF
KCNU 301120Z 3012/3112 09007KT P6SM SCT060 BKN200
     FM301500 10007KT P6SM VCSH BKN070
     FM301800 10007KT P6SM SCT100
     FM310700 15006KT P6SM SCT250=

USA.gov is the U.S. government's official web portal to all federal, state and local government web resources and services.